createdAt,value
2018-12-30T00:00:03.235Z,0
2018-12-30T00:05:02.967Z,0
2018-12-30T00:10:03.102Z,0
2018-12-30T00:15:03.335Z,0
2018-12-30T00:20:03.462Z,0
2018-12-30T00:25:02.555Z,0
2018-12-30T00:30:02.701Z,1
2018-12-30T00:35:02.958Z,1
2018-12-30T00:40:03.180Z,0
2018-12-30T00:45:03.320Z,0
2018-12-30T00:50:03.460Z,0
2018-12-30T00:55:02.652Z,0
2018-12-30T01:00:02.694Z,0
2018-12-30T01:05:02.626Z,0
2018-12-30T01:10:03.002Z,1
2018-12-30T01:15:03.261Z,1
2018-12-30T01:20:03.686Z,1
2018-12-30T01:25:03.371Z,1
2018-12-30T01:30:02.615Z,1
2018-12-30T01:35:02.741Z,1
2018-12-30T01:40:02.903Z,1
2018-12-30T01:45:03.025Z,1
2018-12-30T01:50:03.109Z,0
2018-12-30T01:55:03.267Z,0
2018-12-30T02:00:03.419Z,0
2018-12-30T02:05:02.503Z,1
2018-12-30T02:10:02.647Z,1
2018-12-30T02:15:02.675Z,0
2018-12-30T02:20:03.022Z,0
2018-12-30T02:25:02.839Z,0
2018-12-30T02:30:02.885Z,0
2018-12-30T02:35:03.129Z,0
2018-12-30T02:40:03.298Z,0
2018-12-30T02:45:03.399Z,0
2018-12-30T02:50:02.438Z,1
2018-12-30T02:55:02.685Z,1
2018-12-30T03:00:02.792Z,0
2018-12-30T03:05:02.922Z,1
2018-12-30T03:10:03.031Z,0
2018-12-30T03:15:03.097Z,0
2018-12-30T03:20:03.202Z,0
2018-12-30T03:25:03.263Z,1
2018-12-30T03:30:03.289Z,0
2018-12-30T03:35:03.318Z,0
2018-12-30T03:40:03.480Z,1
2018-12-30T03:45:02.705Z,0
2018-12-30T03:50:02.705Z,0
2018-12-30T03:55:02.955Z,0
2018-12-30T04:00:03.184Z,0
2018-12-30T04:05:03.210Z,0
2018-12-30T04:15:03.073Z,0
2018-12-30T04:20:03.115Z,0
2018-12-30T04:25:03.131Z,0
2018-12-30T04:30:03.268Z,0
2018-12-30T04:35:03.310Z,1
2018-12-30T04:40:03.443Z,1
2018-12-30T04:45:02.470Z,0
2018-12-30T04:50:02.492Z,0
2018-12-30T04:55:02.624Z,0
2018-12-30T05:00:02.667Z,0
2018-12-30T05:05:02.707Z,0
2018-12-30T05:10:02.817Z,0
2018-12-30T05:15:02.885Z,1
2018-12-30T05:20:02.915Z,1
2018-12-30T05:25:02.937Z,1
2018-12-30T05:30:02.762Z,1
2018-12-30T05:35:02.804Z,1
2018-12-30T05:40:02.921Z,1
2018-12-30T05:45:02.981Z,1
2018-12-30T05:50:02.605Z,1
2018-12-30T05:55:02.618Z,1
2018-12-30T06:00:02.712Z,1
2018-12-30T06:05:02.701Z,1
2018-12-30T06:10:02.813Z,1
2018-12-30T06:15:02.934Z,1
2018-12-30T06:20:02.897Z,1
2018-12-30T06:25:03.477Z,1
2018-12-30T06:30:02.553Z,1
2018-12-30T06:35:02.590Z,1
2018-12-30T06:40:02.712Z,1
2018-12-30T06:45:02.651Z,1
2018-12-30T06:50:02.681Z,1
2018-12-30T06:55:02.771Z,1
2018-12-30T07:00:02.853Z,1
2018-12-30T07:05:03.015Z,2
2018-12-30T07:10:03.114Z,3
2018-12-30T07:15:03.199Z,5
2018-12-30T07:20:03.231Z,8
2018-12-30T07:25:03.230Z,26
2018-12-30T07:30:03.246Z,34
2018-12-30T07:35:03.521Z,40
2018-12-30T07:40:02.591Z,52
2018-12-30T07:45:02.533Z,102
2018-12-30T07:50:02.573Z,142
2018-12-30T07:55:02.604Z,256
2018-12-30T08:00:02.631Z,387
2018-12-30T08:05:02.675Z,488
2018-12-30T08:10:02.827Z,746
2018-12-30T08:15:02.835Z,880
2018-12-30T08:20:02.793Z,1000
2018-12-30T08:25:02.834Z,1000
2018-12-30T08:30:02.865Z,1000
2018-12-30T08:35:02.908Z,1000
2018-12-30T08:40:03.005Z,2000
2018-12-30T08:49:39.991Z,1000
2018-12-30T08:50:02.474Z,1000
2018-12-30T08:55:02.817Z,1000
2018-12-30T08:58:07.418Z,2000
2018-12-30T08:58:46.162Z,2000
2018-12-30T09:00:03.199Z,2000
2018-12-30T09:01:49.910Z,2000
2018-12-30T09:05:02.696Z,2000
2018-12-30T09:06:01.188Z,2000
2018-12-30T09:10:03.118Z,2000
2018-12-30T09:14:11.217Z,1000
2018-12-30T09:15:39.448Z,1000
2018-12-30T09:20:02.714Z,930
2018-12-30T09:25:03.131Z,1000
2018-12-30T09:36:27.472Z,1000
2018-12-30T09:40:03.108Z,1000
2018-12-30T09:45:02.434Z,2000
2018-12-30T09:50:02.784Z,2000
2018-12-30T09:55:03.125Z,1000
2018-12-30T10:00:02.549Z,1000
2018-12-30T10:05:02.987Z,1000
2018-12-30T10:10:02.415Z,1000
2018-12-30T10:15:09.682Z,1000
2018-12-30T10:20:02.584Z,2000
2018-12-30T10:25:02.952Z,2000
2018-12-30T10:30:03.391Z,2000
2018-12-30T10:35:02.814Z,2000
2018-12-30T10:36:35.981Z,2000
2018-12-30T10:40:03.328Z,2000
2018-12-30T10:45:02.758Z,2000
2018-12-30T10:46:31.979Z,2000
2018-12-30T10:50:03.184Z,3000
2018-12-30T10:55:02.611Z,3000
2018-12-30T11:00:02.950Z,3000
2018-12-30T11:10:03.018Z,2000
2018-12-30T11:15:02.465Z,2000
2018-12-30T11:20:02.807Z,2000
2018-12-30T11:25:03.293Z,2000
2018-12-30T11:30:02.631Z,1000
2018-12-30T11:35:02.985Z,1000
2018-12-30T11:40:02.389Z,1000
2018-12-30T11:45:02.741Z,1000
2018-12-30T11:50:03.228Z,1000
2018-12-30T11:55:02.588Z,1000
2018-12-30T12:00:02.971Z,1000
2018-12-30T12:05:02.399Z,1000
2018-12-30T12:10:02.800Z,2000
2018-12-30T12:15:03.140Z,2000
2018-12-30T12:20:02.568Z,2000
2018-12-30T12:25:02.900Z,1000
2018-12-30T12:30:03.242Z,2000
2018-12-30T12:35:02.670Z,3000
2018-12-30T12:40:03.106Z,3000
2018-12-30T12:45:02.517Z,3000
2018-12-30T12:50:02.870Z,2000
2018-12-30T12:55:03.349Z,1000
2018-12-30T13:00:02.719Z,1000
2018-12-30T13:05:03.181Z,1000
2018-12-30T13:10:02.630Z,1000
2018-12-30T13:15:03.031Z,1000
2018-12-30T13:20:02.449Z,1000
2018-12-30T13:25:02.800Z,1000
2018-12-30T13:30:03.298Z,1000
2018-12-30T13:35:02.679Z,1000
2018-12-30T13:40:03.112Z,1000
2018-12-30T13:45:02.511Z,1000
2018-12-30T13:50:02.859Z,945
2018-12-30T13:55:03.204Z,969
2018-12-30T14:00:02.613Z,998
2018-12-30T14:05:02.974Z,734
2018-12-30T14:10:02.381Z,346
2018-12-30T14:15:02.828Z,867
2018-12-30T14:20:03.262Z,814
2018-12-30T14:25:02.703Z,575
2018-12-30T14:30:03.172Z,660
2018-12-30T14:35:02.524Z,595
2018-12-30T14:40:02.988Z,366
2018-12-30T14:45:02.508Z,303
2018-12-30T14:50:02.851Z,258
2018-12-30T14:55:04.126Z,97
2018-12-30T15:00:03.525Z,60
2018-12-30T15:05:03.001Z,57
2018-12-30T15:10:02.513Z,60
2018-12-30T15:15:02.944Z,65
2018-12-30T15:20:03.442Z,54
2018-12-30T15:25:02.788Z,51
2018-12-30T15:30:03.121Z,38
2018-12-30T15:35:02.449Z,30
2018-12-30T15:40:02.896Z,16
2018-12-30T15:45:03.326Z,16
2018-12-30T15:50:02.739Z,17
2018-12-30T15:55:03.088Z,14
2018-12-30T16:00:02.492Z,5
2018-12-30T16:05:02.838Z,3
2018-12-30T16:10:03.326Z,2
2018-12-30T16:15:02.695Z,2
2018-12-30T16:20:03.046Z,2
2018-12-30T16:25:02.469Z,2
2018-12-30T16:30:02.910Z,2
2018-12-30T16:35:03.357Z,2
2018-12-30T16:40:02.882Z,1
2018-12-30T16:45:03.363Z,2
2018-12-30T16:50:02.764Z,2
2018-12-30T16:55:03.184Z,2
2018-12-30T17:00:02.629Z,2
2018-12-30T17:05:03.044Z,1
2018-12-30T17:10:02.462Z,1
2018-12-30T17:15:02.805Z,1
2018-12-30T17:20:03.244Z,1
2018-12-30T17:25:02.666Z,1
2018-12-30T17:30:03.012Z,1
2018-12-30T17:35:02.357Z,1
2018-12-30T17:40:02.771Z,1
2018-12-30T17:45:03.274Z,1
2018-12-30T17:50:02.627Z,1
2018-12-30T17:55:02.981Z,2
2018-12-30T18:00:02.432Z,1
2018-12-30T18:05:02.843Z,1
2018-12-30T18:15:02.705Z,1
2018-12-30T18:20:03.178Z,1
2018-12-30T18:25:02.652Z,1
2018-12-30T18:30:03.033Z,1
2018-12-30T18:35:02.486Z,1
2018-12-30T18:40:02.903Z,1
2018-12-30T18:45:03.320Z,1
2018-12-30T18:50:02.721Z,1
2018-12-30T18:55:03.152Z,1
2018-12-30T19:00:02.595Z,1
2018-12-30T19:05:05.248Z,1
2018-12-30T19:10:02.753Z,1
2018-12-30T19:15:03.212Z,1
2018-12-30T19:20:02.609Z,1
2018-12-30T19:25:02.956Z,1
2018-12-30T19:30:03.478Z,1
2018-12-30T19:35:02.869Z,1
2018-12-30T19:40:03.374Z,1
2018-12-30T19:45:02.788Z,1
2018-12-30T19:50:03.123Z,1
2018-12-30T19:55:02.566Z,1
2018-12-30T20:00:03.029Z,1
2018-12-30T20:05:02.447Z,1
2018-12-30T20:10:02.971Z,1
2018-12-30T20:15:02.413Z,1
2018-12-30T20:20:02.825Z,1
2018-12-30T20:25:03.274Z,1
2018-12-30T20:30:02.815Z,1
2018-12-30T20:35:03.258Z,1
2018-12-30T20:40:02.744Z,1
2018-12-30T20:45:03.090Z,1
2018-12-30T20:50:02.501Z,1
2018-12-30T20:55:02.849Z,1
2018-12-30T21:00:03.502Z,1
2018-12-30T21:05:02.958Z,1
2018-12-30T21:10:02.447Z,1
2018-12-30T21:15:02.886Z,1
2018-12-30T21:20:03.370Z,1
2018-12-30T21:25:02.737Z,1
2018-12-30T21:30:03.217Z,1
2018-12-30T21:35:02.646Z,1
2018-12-30T21:40:03.093Z,1
2018-12-30T21:45:02.512Z,1
2018-12-30T21:50:02.909Z,1
2018-12-30T21:55:03.355Z,1
2018-12-30T22:00:02.773Z,1
2018-12-30T22:05:03.264Z,1
2018-12-30T22:10:03.421Z,1
2018-12-30T22:15:02.881Z,1
2018-12-30T22:20:03.364Z,1
2018-12-30T22:25:02.833Z,1
2018-12-30T22:30:03.179Z,1
2018-12-30T22:35:02.604Z,1
2018-12-30T22:40:03.003Z,1
2018-12-30T22:45:02.709Z,1
2018-12-30T22:50:03.119Z,1
2018-12-30T22:55:02.549Z,1
2018-12-30T23:00:02.975Z,1
2018-12-30T23:05:02.403Z,1
2018-12-30T23:10:02.869Z,1
2018-12-30T23:15:03.325Z,1
2018-12-30T23:20:02.730Z,1
2018-12-30T23:25:03.150Z,1
2018-12-30T23:30:02.592Z,1
2018-12-30T23:35:02.965Z,0
2018-12-30T23:40:02.424Z,1
2018-12-30T23:45:02.877Z,1
2018-12-30T23:50:03.317Z,1
2018-12-30T23:55:02.723Z,1
